This is the latest recevied weather packets stored in our database for station/object 9M2EVR-2. If no packets are shown the sender has not sent any weather packets the latest 10 day(s).
| Time | Temp. | Humidity | Pressure | Rain* | Wind** | Luminosity | Snow |
|---|---|---|---|---|---|---|---|
| 1778018499 | 36.67° C | 54% | 1005.2 hPa | - | - | - | - |
| 1778017599 | 36.67° C | 54% | 1005.2 hPa | - | - | - | - |
| 1778016698 | 36.67° C | 54% | 1005.1 hPa | - | - | - | - |
| 1778015797 | 36.67° C | 54% | 1005 hPa | - | - | - | - |
| 1778014896 | 36.67° C | 54% | 1005.2 hPa | - | - | - | - |
| 1778013995 | 36.67° C | 53% | 1005.2 hPa | - | - | - | - |
| 1778013094 | 36.67° C | 53% | 1005.1 hPa | - | - | - | - |
| 1778012194 | 36.67° C | 52% | 1005 hPa | - | - | - | - |
| 1778011292 | 37.78° C | 49% | 1005 hPa | - | - | - | - |
| 1778010392 | 38.33° C | 49% | 1005.2 hPa | - | - | - | - |
| 1778009491 | 39.44° C | 47% | 1005.1 hPa | - | - | - | - |
| 1778008590 | 40° C | 46% | 1005.3 hPa | - | - | - | - |
| 1778007689 | 40.56° C | 46% | 1005.5 hPa | - | - | - | - |
| 1778006788 | 40.56° C | 45% | 1005.7 hPa | - | - | - | - |
| 1778003459 | 43.33° C | 39% | 1006 hPa | - | - | - | - |
| 1778002558 | 43.89° C | 38% | 1006.2 hPa | - | - | - | - |
| 1778001657 | 44.44° C | 37% | 1006.3 hPa | - | - | - | - |
| 1778000756 | 45° C | 37% | 1006.4 hPa | - | - | - | - |
| 1777999856 | 45° C | 37% | 1006.5 hPa | - | - | - | - |
| 1777998955 | 44.44° C | 37% | 1006.4 hPa | - | - | - | - |
| 1777998054 | 44.44° C | 38% | 1006.5 hPa | - | - | - | - |
| 1777997153 | 44.44° C | 38% | 1006.5 hPa | - | - | - | - |
| 1777996252 | 43.89° C | 39% | 1006.5 hPa | - | - | - | - |
| 1777995352 | 42.78° C | 41% | 1006.6 hPa | - | - | - | - |
| 1777994064 | 36.11° C | 54% | 1006.4 hPa | - | - | - | - |
* Rain since midnight (hover to see other rain measurements)
** Current wind speed in m/s (hover to see current wind gust speed)